sensor_id;sensor_type;location;lat;lon;timestamp;pressure;altitude;pressure_sealevel;temperature;humidity
22662;BME280;11497;52.222;21.246;2022-10-28T00:01:24;101458.28;;;7.86;100.00
22662;BME280;11497;52.222;21.246;2022-10-28T00:03:55;101465.25;;;7.84;100.00
22662;BME280;11497;52.222;21.246;2022-10-28T00:06:25;101463.53;;;7.83;100.00
22662;BME280;11497;52.222;21.246;2022-10-28T00:08:53;101458.31;;;7.83;100.00
22662;BME280;11497;52.222;21.246;2022-10-28T00:11:26;101457.41;;;7.88;100.00
22662;BME280;11497;52.222;21.246;2022-10-28T00:13:55;101455.63;;;7.96;100.00
22662;BME280;11497;52.222;21.246;2022-10-28T00:16:26;101461.69;;;8.00;100.00
22662;BME280;11497;52.222;21.246;2022-10-28T00:18:54;101458.25;;;7.95;100.00
22662;BME280;11497;52.222;21.246;2022-10-28T00:21:26;101463.44;;;7.98;100.00
22662;BME280;11497;52.222;21.246;2022-10-28T00:23:54;101456.50;;;7.97;100.00
22662;BME280;11497;52.222;21.246;2022-10-28T00:26:25;101458.25;;;7.95;100.00
22662;BME280;11497;52.222;21.246;2022-10-28T00:28:56;101453.03;;;7.95;100.00
22662;BME280;11497;52.222;21.246;2022-10-28T00:31:26;101441.66;;;8.13;100.00
22662;BME280;11497;52.222;21.246;2022-10-28T00:33:55;101438.22;;;8.03;100.00
22662;BME280;11497;52.222;21.246;2022-10-28T00:36:33;101442.53;;;8.07;100.00
22662;BME280;11497;52.222;21.246;2022-10-28T00:39:06;101446.91;;;8.04;100.00
22662;BME280;11497;52.222;21.246;2022-10-28T00:41:37;101442.50;;;8.13;100.00
22662;BME280;11497;52.222;21.246;2022-10-28T00:52:46;101432.97;;;8.08;100.00
22662;BME280;11497;52.222;21.246;2022-10-28T00:55:16;101430.38;;;8.06;100.00
22662;BME280;11497;52.222;21.246;2022-10-28T00:57:45;101438.19;;;8.11;100.00
22662;BME280;11497;52.222;21.246;2022-10-28T01:00:14;101423.38;;;8.14;100.00
22662;BME280;11497;52.222;21.246;2022-10-28T01:02:49;101420.63;;;8.31;100.00
22662;BME280;11497;52.222;21.246;2022-10-28T01:05:20;101419.88;;;8.21;100.00
22662;BME280;11497;52.222;21.246;2022-10-28T01:07:52;101414.66;;;8.18;100.00
22662;BME280;11497;52.222;21.246;2022-10-28T01:10:32;101426.81;;;8.22;100.00
22662;BME280;11497;52.222;21.246;2022-10-28T01:16:33;101419.75;;;8.37;100.00
22662;BME280;11497;52.222;21.246;2022-10-28T01:22:22;101418.06;;;8.26;100.00
22662;BME280;11497;52.222;21.246;2022-10-28T01:30:17;101412.84;;;8.26;100.00
22662;BME280;11497;52.222;21.246;2022-10-28T01:32:58;101408.50;;;8.25;100.00
22662;BME280;11497;52.222;21.246;2022-10-28T01:35:37;101418.88;;;8.39;100.00
22662;BME280;11497;52.222;21.246;2022-10-28T01:46:34;101417.91;;;8.51;100.00
22662;BME280;11497;52.222;21.246;2022-10-28T01:49:21;101415.25;;;8.55;100.00
22662;BME280;11497;52.222;21.246;2022-10-28T01:51:53;101414.22;;;8.73;100.00
22662;BME280;11497;52.222;21.246;2022-10-28T01:54:25;101412.47;;;8.74;100.00
22662;BME280;11497;52.222;21.246;2022-10-28T01:59:59;101407.22;;;8.77;100.00
22662;BME280;11497;52.222;21.246;2022-10-28T02:02:39;101415.94;;;8.74;100.00
22662;BME280;11497;52.222;21.246;2022-10-28T02:11:02;101418.50;;;8.79;100.00
22662;BME280;11497;52.222;21.246;2022-10-28T02:13:45;101421.00;;;8.92;100.00
22662;BME280;11497;52.222;21.246;2022-10-28T02:21:45;101400.03;;;8.98;100.00
22662;BME280;11497;52.222;21.246;2022-10-28T02:24:24;101403.47;;;9.04;100.00
22662;BME280;11497;52.222;21.246;2022-10-28T02:27:29;101403.50;;;9.00;100.00
22662;BME280;11497;52.222;21.246;2022-10-28T02:30:17;101403.47;;;9.04;100.00
22662;BME280;11497;52.222;21.246;2022-10-28T02:32:52;101392.97;;;9.10;100.00
22662;BME280;11497;52.222;21.246;2022-10-28T02:38:27;101395.47;;;9.16;100.00
22662;BME280;11497;52.222;21.246;2022-10-28T02:41:03;101378.84;;;9.24;100.00
22662;BME280;11497;52.222;21.246;2022-10-28T02:43:35;101379.66;;;9.28;100.00
22662;BME280;11497;52.222;21.246;2022-10-28T02:46:04;101377.06;;;9.28;100.00
22662;BME280;11497;52.222;21.246;2022-10-28T02:48:49;101382.31;;;9.25;100.00
22662;BME280;11497;52.222;21.246;2022-10-28T02:51:32;101378.00;;;9.22;100.00
22662;BME280;11497;52.222;21.246;2022-10-28T02:56:43;101371.97;;;9.16;100.00
22662;BME280;11497;52.222;21.246;2022-10-28T02:59:12;101375.44;;;9.18;100.00
22662;BME280;11497;52.222;21.246;2022-10-28T03:01:40;101370.22;;;9.18;100.00
22662;BME280;11497;52.222;21.246;2022-10-28T03:04:08;101364.94;;;9.21;100.00
22662;BME280;11497;52.222;21.246;2022-10-28T03:06:36;101369.31;;;9.19;100.00
22662;BME280;11497;52.222;21.246;2022-10-28T03:09:04;101374.56;;;9.17;100.00
22662;BME280;11497;52.222;21.246;2022-10-28T03:11:32;101371.97;;;9.16;100.00
22662;BME280;11497;52.222;21.246;2022-10-28T03:14:00;101377.06;;;9.26;100.00
22662;BME280;11497;52.222;21.246;2022-10-28T03:16:28;101378.81;;;9.26;100.00
22662;BME280;11497;52.222;21.246;2022-10-28T03:18:56;101373.69;;;9.17;100.00
22662;BME280;11497;52.222;21.246;2022-10-28T03:21:24;101373.66;;;9.20;100.00
22662;BME280;11497;52.222;21.246;2022-10-28T03:23:52;101368.47;;;9.17;100.00
22662;BME280;11497;52.222;21.246;2022-10-28T03:26:20;101371.94;;;9.19;100.00
22662;BME280;11497;52.222;21.246;2022-10-28T03:28:48;101370.22;;;9.18;100.00
22662;BME280;11497;52.222;21.246;2022-10-28T03:31:16;101379.00;;;9.11;100.00
22662;BME280;11497;52.222;21.246;2022-10-28T03:33:43;101375.41;;;9.19;100.00
22662;BME280;11497;52.222;21.246;2022-10-28T03:36:11;101381.50;;;9.21;100.00
22662;BME280;11497;52.222;21.246;2022-10-28T03:38:39;101375.56;;;9.09;100.00
22662;BME280;11497;52.222;21.246;2022-10-28T03:41:07;101376.38;;;9.11;100.00
22662;BME280;11497;52.222;21.246;2022-10-28T03:43:34;101379.13;;;9.02;100.00
22662;BME280;11497;52.222;21.246;2022-10-28T03:46:02;101368.75;;;8.95;100.00
22662;BME280;11497;52.222;21.246;2022-10-28T03:48:30;101364.38;;;8.97;100.00
22662;BME280;11497;52.222;21.246;2022-10-28T03:50:58;101365.22;;;8.99;100.00
22662;BME280;11497;52.222;21.246;2022-10-28T03:53:26;101355.63;;;9.02;100.00
22662;BME280;11497;52.222;21.246;2022-10-28T03:56:01;101354.75;;;9.01;100.00
22662;BME280;11497;52.222;21.246;2022-10-28T03:58:29;101360.06;;;8.93;100.00
22662;BME280;11497;52.222;21.246;2022-10-28T04:00:57;101355.75;;;8.91;100.00
22662;BME280;11497;52.222;21.246;2022-10-28T04:03:25;101355.00;;;8.78;100.00
22662;BME280;11497;52.222;21.246;2022-10-28T04:05:53;101356.72;;;8.79;100.00
22662;BME280;11497;52.222;21.246;2022-10-28T04:08:21;101353.25;;;8.79;100.00
22662;BME280;11497;52.222;21.246;2022-10-28T04:10:49;101349.88;;;8.69;100.00
22662;BME280;11497;52.222;21.246;2022-10-28T04:13:17;101353.31;;;8.73;100.00
22662;BME280;11497;52.222;21.246;2022-10-28T04:15:45;101357.75;;;8.66;100.00
22662;BME280;11497;52.222;21.246;2022-10-28T04:18:12;101349.88;;;8.69;100.00
22662;BME280;11497;52.222;21.246;2022-10-28T04:20:40;101354.16;;;8.76;100.00
22662;BME280;11497;52.222;21.246;2022-10-28T04:23:09;101349.78;;;8.78;100.00
22662;BME280;11497;52.222;21.246;2022-10-28T04:25:41;101348.94;;;8.75;100.00
22662;BME280;11497;52.222;21.246;2022-10-28T04:28:08;101349.00;;;8.68;100.00
22662;BME280;11497;52.222;21.246;2022-10-28T04:30:36;101342.06;;;8.67;100.00
22662;BME280;11497;52.222;21.246;2022-10-28T04:33:04;101342.97;;;8.65;100.00
22662;BME280;11497;52.222;21.246;2022-10-28T04:35:32;101347.25;;;8.69;100.00
22662;BME280;11497;52.222;21.246;2022-10-28T04:38:00;101342.94;;;8.66;100.00
22662;BME280;11497;52.222;21.246;2022-10-28T04:40:28;101352.44;;;8.72;100.00
22662;BME280;11497;52.222;21.246;2022-10-28T04:42:56;101350.81;;;8.63;100.00
22662;BME280;11497;52.222;21.246;2022-10-28T04:45:24;101351.69;;;8.64;100.00
22662;BME280;11497;52.222;21.246;2022-10-28T04:47:57;101356.81;;;8.70;100.00
22662;BME280;11497;52.222;21.246;2022-10-28T04:50:25;101353.28;;;8.77;100.00
22662;BME280;11497;52.222;21.246;2022-10-28T04:52:53;101356.78;;;8.73;100.00
22662;BME280;11497;52.222;21.246;2022-10-28T04:55:22;101349.78;;;8.78;100.00
22662;BME280;11497;52.222;21.246;2022-10-28T04:57:58;101360.09;;;8.90;100.00
22662;BME280;11497;52.222;21.246;2022-10-28T05:00:28;101351.50;;;8.79;100.00
22662;BME280;11497;52.222;21.246;2022-10-28T05:02:58;101354.19;;;8.73;100.00
22662;BME280;11497;52.222;21.246;2022-10-28T05:05:27;101358.53;;;8.73;100.00
22662;BME280;11497;52.222;21.246;2022-10-28T05:07:55;101353.97;;;8.94;100.00
22662;BME280;11497;52.222;21.246;2022-10-28T05:10:23;101353.16;;;8.89;100.00
22662;BME280;11497;52.222;21.246;2022-10-28T05:12:51;101347.16;;;8.78;100.00
22662;BME280;11497;52.222;21.246;2022-10-28T05:15:19;101341.97;;;8.75;100.00
22662;BME280;11497;52.222;21.246;2022-10-28T05:17:47;101335.91;;;8.73;100.00
22662;BME280;11497;52.222;21.246;2022-10-28T05:20:17;101339.34;;;8.78;100.00
22662;BME280;11497;52.222;21.246;2022-10-28T05:22:48;101339.31;;;8.81;100.00
22662;BME280;11497;52.222;21.246;2022-10-28T05:25:17;101340.97;;;8.88;100.00
22662;BME280;11497;52.222;21.246;2022-10-28T05:27:46;101327.09;;;8.85;100.00
22662;BME280;11497;52.222;21.246;2022-10-28T05:30:14;101329.66;;;8.88;100.00
22662;BME280;11497;52.222;21.246;2022-10-28T05:32:42;101327.00;;;8.92;100.00
22662;BME280;11497;52.222;21.246;2022-10-28T05:35:10;101324.38;;;8.94;100.00
22662;BME280;11497;52.222;21.246;2022-10-28T05:37:38;101320.03;;;8.94;100.00
22662;BME280;11497;52.222;21.246;2022-10-28T05:40:07;101323.44;;;8.99;100.00
22662;BME280;11497;52.222;21.246;2022-10-28T05:42:40;101327.81;;;8.97;100.00
22662;BME280;11497;52.222;21.246;2022-10-28T05:45:09;101318.22;;;8.99;100.00
22662;BME280;11497;52.222;21.246;2022-10-28T05:47:42;101314.75;;;8.99;100.00
22662;BME280;11497;52.222;21.246;2022-10-28T05:50:11;101323.38;;;9.06;100.00
22662;BME280;11497;52.222;21.246;2022-10-28T05:52:39;101323.28;;;9.10;100.00
22662;BME280;11497;52.222;21.246;2022-10-28T05:55:07;101321.59;;;9.08;100.00
22662;BME280;11497;52.222;21.246;2022-10-28T05:57:35;101326.66;;;9.20;100.00
22662;BME280;11497;52.222;21.246;2022-10-28T06:00:04;101333.56;;;9.24;100.00
22662;BME280;11497;52.222;21.246;2022-10-28T06:02:39;101324.75;;;9.34;100.00
22662;BME280;11497;52.222;21.246;2022-10-28T06:05:08;101323.03;;;9.30;100.00
22662;BME280;11497;52.222;21.246;2022-10-28T06:07:37;101322.06;;;9.39;100.00
22662;BME280;11497;52.222;21.246;2022-10-28T06:10:06;101317.75;;;9.36;100.00
22662;BME280;11497;52.222;21.246;2022-10-28T06:12:35;101319.34;;;9.46;100.00
22662;BME280;11497;52.222;21.246;2022-10-28T06:15:03;101309.69;;;9.53;100.00
22662;BME280;11497;52.222;21.246;2022-10-28T06:17:31;101305.13;;;9.65;100.00
22662;BME280;11497;52.222;21.246;2022-10-28T06:19:59;101308.63;;;9.64;100.00
22662;BME280;11497;52.222;21.246;2022-10-28T06:22:27;101307.75;;;9.64;100.00
22662;BME280;11497;52.222;21.246;2022-10-28T06:24:55;101315.38;;;9.79;100.00
22662;BME280;11497;52.222;21.246;2022-10-28T06:27:23;101306.63;;;9.82;100.00
22662;BME280;11497;52.222;21.246;2022-10-28T06:29:51;101309.94;;;9.93;100.00
22662;BME280;11497;52.222;21.246;2022-10-28T06:32:18;101302.03;;;9.96;100.00
22662;BME280;11497;52.222;21.246;2022-10-28T06:34:46;101303.63;;;10.03;100.00
22662;BME280;11497;52.222;21.246;2022-10-28T06:37:14;101306.25;;;10.03;100.00
22662;BME280;11497;52.222;21.246;2022-10-28T06:39:42;101306.25;;;10.03;100.00
22662;BME280;11497;52.222;21.246;2022-10-28T06:42:12;101304.31;;;10.14;100.00
22662;BME280;11497;52.222;21.246;2022-10-28T06:44:40;101301.59;;;10.23;100.00
22662;BME280;11497;52.222;21.246;2022-10-28T06:47:08;101298.09;;;10.24;100.00
22662;BME280;11497;52.222;21.246;2022-10-28T06:49:36;101292.84;;;10.26;100.00
22662;BME280;11497;52.222;21.246;2022-10-28T06:52:03;101295.25;;;10.37;100.00
22662;BME280;11497;52.222;21.246;2022-10-28T06:54:31;101291.63;;;10.44;100.00
22662;BME280;11497;52.222;21.246;2022-10-28T06:56:59;101297.44;;;10.59;100.00
22662;BME280;11497;52.222;21.246;2022-10-28T06:59:27;101304.03;;;10.80;100.00
22662;BME280;11497;52.222;21.246;2022-10-28T07:01:55;101311.16;;;10.72;100.00
22662;BME280;11497;52.222;21.246;2022-10-28T07:04:23;101304.66;;;10.91;100.00
22662;BME280;11497;52.222;21.246;2022-10-28T07:06:54;101311.06;;;11.20;100.00
22662;BME280;11497;52.222;21.246;2022-10-28T07:09:22;101313.00;;;11.50;100.00
22662;BME280;11497;52.222;21.246;2022-10-28T07:11:50;101314.69;;;11.53;100.00
22662;BME280;11497;52.222;21.246;2022-10-28T07:14:22;101313.50;;;11.68;100.00
22662;BME280;11497;52.222;21.246;2022-10-28T07:16:49;101309.25;;;11.99;100.00
22662;BME280;11497;52.222;21.246;2022-10-28T07:19:17;101314.75;;;12.24;100.00
22662;BME280;11497;52.222;21.246;2022-10-28T07:21:49;101307.66;;;12.60;100.00
22662;BME280;11497;52.222;21.246;2022-10-28T07:24:17;101307.25;;;12.75;100.00
22662;BME280;11497;52.222;21.246;2022-10-28T07:26:47;101307.41;;;13.00;100.00
22662;BME280;11497;52.222;21.246;2022-10-28T07:29:20;101313.97;;;13.16;99.40
22662;BME280;11497;52.222;21.246;2022-10-28T07:31:52;101316.03;;;13.36;98.55
22662;BME280;11497;52.222;21.246;2022-10-28T07:34:20;101322.72;;;13.46;97.75
22662;BME280;11497;52.222;21.246;2022-10-28T07:36:54;101322.56;;;13.51;96.46
22662;BME280;11497;52.222;21.246;2022-10-28T07:39:23;101314.34;;;13.61;94.32
22662;BME280;11497;52.222;21.246;2022-10-28T07:41:50;101318.72;;;13.62;93.96
22662;BME280;11497;52.222;21.246;2022-10-28T07:44:18;101311.53;;;13.68;94.02
22662;BME280;11497;52.222;21.246;2022-10-28T07:46:46;101306.50;;;14.14;93.57
22662;BME280;11497;52.222;21.246;2022-10-28T07:49:14;101305.22;;;14.52;90.52
22662;BME280;11497;52.222;21.246;2022-10-28T07:51:44;101301.75;;;14.75;89.61
22662;BME280;11497;52.222;21.246;2022-10-28T07:54:12;101296.97;;;14.86;88.20
22662;BME280;11497;52.222;21.246;2022-10-28T07:56:40;101295.75;;;14.95;86.49
22662;BME280;11497;52.222;21.246;2022-10-28T07:59:08;101295.56;;;14.76;85.70
22662;BME280;11497;52.222;21.246;2022-10-28T08:01:36;101289.00;;;14.88;85.81
22662;BME280;11497;52.222;21.246;2022-10-28T08:04:04;101282.94;;;15.09;85.26
22662;BME280;11497;52.222;21.246;2022-10-28T08:06:33;101281.22;;;15.30;84.65
22662;BME280;11497;52.222;21.246;2022-10-28T08:09:03;101289.75;;;15.82;82.01
22662;BME280;11497;52.222;21.246;2022-10-28T08:11:30;101295.53;;;15.70;80.68
22662;BME280;11497;52.222;21.246;2022-10-28T08:14:00;101303.34;;;15.49;80.62
22662;BME280;11497;52.222;21.246;2022-10-28T08:16:28;101295.75;;;15.18;81.11
22662;BME280;11497;52.222;21.246;2022-10-28T08:18:57;101294.13;;;15.16;81.76
22662;BME280;11497;52.222;21.246;2022-10-28T08:21:25;101287.13;;;15.15;81.37
22662;BME280;11497;52.222;21.246;2022-10-28T08:23:54;101296.19;;;15.08;81.89
22662;BME280;11497;52.222;21.246;2022-10-28T08:26:22;101291.56;;;14.89;82.42
22662;BME280;11497;52.222;21.246;2022-10-28T08:28:51;101286.94;;;14.73;83.29
22662;BME280;11497;52.222;21.246;2022-10-28T08:31:19;101286.34;;;14.88;83.76
22662;BME280;11497;52.222;21.246;2022-10-28T08:33:47;101287.84;;;15.18;84.10
22662;BME280;11497;52.222;21.246;2022-10-28T08:36:15;101278.72;;;16.35;83.49
22662;BME280;11497;52.222;21.246;2022-10-28T08:38:45;101284.41;;;17.79;76.96
22662;BME280;11497;52.222;21.246;2022-10-28T08:41:28;101282.97;;;17.90;72.52
22662;BME280;11497;52.222;21.246;2022-10-28T08:49:14;101276.78;;;16.58;73.39
22662;BME280;11497;52.222;21.246;2022-10-28T08:52:00;101281.44;;;16.33;74.38
22662;BME280;11497;52.222;21.246;2022-10-28T08:54:38;101281.53;;;16.50;75.33
22662;BME280;11497;52.222;21.246;2022-10-28T08:57:17;101290.59;;;16.85;74.68
22662;BME280;11497;52.222;21.246;2022-10-28T08:59:46;101272.56;;;17.50;73.53
22662;BME280;11497;52.222;21.246;2022-10-28T09:02:23;101274.72;;;17.97;71.68
22662;BME280;11497;52.222;21.246;2022-10-28T09:05:01;101278.56;;;18.60;68.71
22662;BME280;11497;52.222;21.246;2022-10-28T09:07:33;101277.31;;;18.83;67.58
22662;BME280;11497;52.222;21.246;2022-10-28T09:10:16;101279.84;;;19.33;64.82
22662;BME280;11497;52.222;21.246;2022-10-28T09:18:18;101269.31;;;21.92;56.84
22662;BME280;11497;52.222;21.246;2022-10-28T09:20:53;101271.66;;;22.74;54.60
22662;BME280;11497;52.222;21.246;2022-10-28T09:38:06;101272.81;;;24.16;47.97
22662;BME280;11497;52.222;21.246;2022-10-28T09:40:41;101276.56;;;24.49;47.07
22662;BME280;11497;52.222;21.246;2022-10-28T09:43:33;101277.72;;;23.02;48.35
22662;BME280;11497;52.222;21.246;2022-10-28T09:46:14;101272.56;;;23.24;49.51
22662;BME280;11497;52.222;21.246;2022-10-28T09:48:52;101277.25;;;23.33;48.92
22662;BME280;11497;52.222;21.246;2022-10-28T09:53:56;101268.00;;;23.98;48.29
22662;BME280;11497;52.222;21.246;2022-10-28T09:56:27;101268.38;;;24.04;47.38
22662;BME280;11497;52.222;21.246;2022-10-28T09:58:59;101257.19;;;23.99;47.13
22662;BME280;11497;52.222;21.246;2022-10-28T10:01:31;101261.66;;;23.27;47.75
22662;BME280;11497;52.222;21.246;2022-10-28T10:04:00;101255.75;;;22.35;49.94
22662;BME280;11497;52.222;21.246;2022-10-28T10:06:39;101260.78;;;21.05;52.56
22662;BME280;11497;52.222;21.246;2022-10-28T10:09:36;101253.28;;;20.10;55.28
22662;BME280;11497;52.222;21.246;2022-10-28T10:12:11;101258.78;;;19.62;57.84
22662;BME280;11497;52.222;21.246;2022-10-28T10:14:48;101249.56;;;19.06;59.66
22662;BME280;11497;52.222;21.246;2022-10-28T10:17:44;101251.47;;;18.86;61.64
22662;BME280;11497;52.222;21.246;2022-10-28T10:20:17;101246.66;;;18.77;62.60
22662;BME280;11497;52.222;21.246;2022-10-28T10:22:47;101240.94;;;18.52;64.40
22662;BME280;11497;52.222;21.246;2022-10-28T10:28:15;101237.22;;;18.39;66.14
22662;BME280;11497;52.222;21.246;2022-10-28T10:30:57;101231.38;;;18.32;66.49
22662;BME280;11497;52.222;21.246;2022-10-28T10:33:36;101233.94;;;18.34;66.83
22662;BME280;11497;52.222;21.246;2022-10-28T10:38:38;101227.59;;;18.03;68.67
22662;BME280;11497;52.222;21.246;2022-10-28T10:41:36;101226.25;;;17.94;69.44
22662;BME280;11497;52.222;21.246;2022-10-28T10:44:23;101219.00;;;17.81;69.79
22662;BME280;11497;52.222;21.246;2022-10-28T10:49:36;101219.63;;;17.86;70.75
22662;BME280;11497;52.222;21.246;2022-10-28T10:52:14;101223.53;;;17.96;70.80
22662;BME280;11497;52.222;21.246;2022-10-28T10:54:57;101213.72;;;17.81;71.51
22662;BME280;11497;52.222;21.246;2022-10-28T10:57:27;101209.13;;;17.84;71.26
22662;BME280;11497;52.222;21.246;2022-10-28T10:59:56;101212.16;;;17.77;71.38
22662;BME280;11497;52.222;21.246;2022-10-28T11:02:29;101208.19;;;17.85;71.48
22662;BME280;11497;52.222;21.246;2022-10-28T11:05:08;101206.72;;;17.97;71.62
22662;BME280;11497;52.222;21.246;2022-10-28T11:07:44;101197.22;;;18.10;71.64
22662;BME280;11497;52.222;21.246;2022-10-28T11:10:29;101190.66;;;18.00;71.62
22662;BME280;11497;52.222;21.246;2022-10-28T11:13:25;101188.00;;;18.00;71.85
22662;BME280;11497;52.222;21.246;2022-10-28T11:16:05;101183.03;;;18.11;71.90
22662;BME280;11497;52.222;21.246;2022-10-28T11:18:42;101180.22;;;18.14;71.90
22662;BME280;11497;52.222;21.246;2022-10-28T11:29:49;101156.16;;;18.35;71.35
22662;BME280;11497;52.222;21.246;2022-10-28T11:32:42;101156.31;;;18.32;71.13
22662;BME280;11497;52.222;21.246;2022-10-28T11:38:59;101148.50;;;18.46;71.01
22662;BME280;11497;52.222;21.246;2022-10-28T11:44:52;101145.28;;;18.72;70.09
22662;BME280;11497;52.222;21.246;2022-10-28T11:51:07;101146.06;;;18.90;69.47
22662;BME280;11497;52.222;21.246;2022-10-28T11:53:56;101149.22;;;18.81;69.44
22662;BME280;11497;52.222;21.246;2022-10-28T11:56:36;101141.97;;;18.84;69.80
22662;BME280;11497;52.222;21.246;2022-10-28T11:59:10;101149.06;;;19.00;69.54
22662;BME280;11497;52.222;21.246;2022-10-28T12:02:03;101145.13;;;18.91;69.52
22662;BME280;11497;52.222;21.246;2022-10-28T12:07:48;101136.56;;;18.86;69.22
22662;BME280;11497;52.222;21.246;2022-10-28T12:10:58;101137.25;;;18.89;69.11
22662;BME280;11497;52.222;21.246;2022-10-28T12:19:01;101135.72;;;18.85;69.20
22662;BME280;11497;52.222;21.246;2022-10-28T12:24:45;101124.16;;;19.02;69.08
22662;BME280;11497;52.222;21.246;2022-10-28T12:27:42;101127.91;;;19.14;69.04
22662;BME280;11497;52.222;21.246;2022-10-28T12:30:33;101127.31;;;19.09;68.82
22662;BME280;11497;52.222;21.246;2022-10-28T12:33:37;101122.00;;;19.09;68.55
22662;BME280;11497;52.222;21.246;2022-10-28T12:41:24;101112.41;;;19.06;68.65
22662;BME280;11497;52.222;21.246;2022-10-28T12:44:03;101121.97;;;19.24;68.43
22662;BME280;11497;52.222;21.246;2022-10-28T12:57:58;101104.41;;;19.68;65.79
22662;BME280;11497;52.222;21.246;2022-10-28T13:00:33;101103.88;;;19.77;65.82
22662;BME280;11497;52.222;21.246;2022-10-28T13:03:04;101097.38;;;19.67;66.10
22662;BME280;11497;52.222;21.246;2022-10-28T13:05:46;101096.47;;;19.82;65.71
22662;BME280;11497;52.222;21.246;2022-10-28T13:14:09;101091.69;;;19.58;66.01
22662;BME280;11497;52.222;21.246;2022-10-28T13:28:35;101087.25;;;19.73;65.43
22662;BME280;11497;52.222;21.246;2022-10-28T13:31:08;101077.13;;;19.80;65.71
22662;BME280;11497;52.222;21.246;2022-10-28T13:33:37;101080.16;;;19.74;65.68
22662;BME280;11497;52.222;21.246;2022-10-28T13:36:25;101076.69;;;19.57;66.22
22662;BME280;11497;52.222;21.246;2022-10-28T13:39:05;101083.56;;;19.46;66.42
22662;BME280;11497;52.222;21.246;2022-10-28T13:41:36;101095.94;;;19.31;66.94
22662;BME280;11497;52.222;21.246;2022-10-28T13:44:20;101094.22;;;19.30;67.28
22662;BME280;11497;52.222;21.246;2022-10-28T13:52:44;101093.75;;;19.08;67.65
22662;BME280;11497;52.222;21.246;2022-10-28T13:55:43;101097.91;;;18.98;67.89
22662;BME280;11497;52.222;21.246;2022-10-28T13:58:24;101105.25;;;18.92;68.42
22662;BME280;11497;52.222;21.246;2022-10-28T14:00:53;101114.75;;;18.81;68.74
22662;BME280;11497;52.222;21.246;2022-10-28T14:03:24;101122.09;;;18.76;69.32
22662;BME280;11497;52.222;21.246;2022-10-28T14:05:58;101129.88;;;18.63;69.73
22662;BME280;11497;52.222;21.246;2022-10-28T14:08:38;101135.38;;;18.60;70.05
22662;BME280;11497;52.222;21.246;2022-10-28T14:11:12;101151.22;;;18.44;70.55
22662;BME280;11497;52.222;21.246;2022-10-28T14:13:48;101152.56;;;18.36;71.45
22662;BME280;11497;52.222;21.246;2022-10-28T14:16:29;101169.41;;;18.35;71.66
22662;BME280;11497;52.222;21.246;2022-10-28T14:19:13;101162.88;;;18.24;72.40
22662;BME280;11497;52.222;21.246;2022-10-28T14:22:02;101160.38;;;18.21;72.66
22662;BME280;11497;52.222;21.246;2022-10-28T14:24:35;101153.56;;;18.17;72.79
22662;BME280;11497;52.222;21.246;2022-10-28T14:35:24;101145.44;;;17.70;75.33
22662;BME280;11497;52.222;21.246;2022-10-28T14:50:13;101116.03;;;17.40;81.01
22662;BME280;11497;52.222;21.246;2022-10-28T14:52:44;101101.06;;;17.39;82.16
22662;BME280;11497;52.222;21.246;2022-10-28T14:55:29;101102.94;;;17.20;83.89
22662;BME280;11497;52.222;21.246;2022-10-28T15:03:59;101057.16;;;17.01;87.54
22662;BME280;11497;52.222;21.246;2022-10-28T15:06:37;101058.66;;;16.89;88.01
22662;BME280;11497;52.222;21.246;2022-10-28T15:12:02;101066.69;;;16.69;89.48
22662;BME280;11497;52.222;21.246;2022-10-28T15:14:35;101066.34;;;16.56;90.14
22662;BME280;11497;52.222;21.246;2022-10-28T15:17:21;101080.19;;;16.44;90.95
22662;BME280;11497;52.222;21.246;2022-10-28T15:19:52;101083.59;;;16.46;91.87
22662;BME280;11497;52.222;21.246;2022-10-28T15:22:28;101074.25;;;16.39;92.43
22662;BME280;11497;52.222;21.246;2022-10-28T15:25:00;101067.66;;;16.28;93.13
22662;BME280;11497;52.222;21.246;2022-10-28T15:27:33;101059.47;;;16.35;93.30
22662;BME280;11497;52.222;21.246;2022-10-28T15:32:41;101035.69;;;16.35;93.82
22662;BME280;11497;52.222;21.246;2022-10-28T15:40:48;101026.69;;;16.01;95.32
22662;BME280;11497;52.222;21.246;2022-10-28T15:43:18;101027.69;;;15.99;95.82
22662;BME280;11497;52.222;21.246;2022-10-28T15:45:48;101023.81;;;16.06;95.79
22662;BME280;11497;52.222;21.246;2022-10-28T15:48:26;101030.09;;;16.03;96.02
22662;BME280;11497;52.222;21.246;2022-10-28T15:53:48;101019.59;;;15.83;96.38
22662;BME280;11497;52.222;21.246;2022-10-28T15:56:56;101004.91;;;15.96;96.47
22662;BME280;11497;52.222;21.246;2022-10-28T15:59:24;100999.81;;;15.73;96.63
22662;BME280;11497;52.222;21.246;2022-10-28T16:01:52;101002.84;;;15.63;97.31
22662;BME280;11497;52.222;21.246;2022-10-28T16:07:06;100994.94;;;15.63;98.44
22662;BME280;11497;52.222;21.246;2022-10-28T16:09:40;100994.00;;;15.64;98.38
22662;BME280;11497;52.222;21.246;2022-10-28T16:12:26;100990.00;;;15.56;98.55
22662;BME280;11497;52.222;21.246;2022-10-28T16:14:59;100984.13;;;15.70;98.40
22662;BME280;11497;52.222;21.246;2022-10-28T16:17:29;100985.69;;;15.74;97.97
22662;BME280;11497;52.222;21.246;2022-10-28T16:20:21;100984.91;;;15.72;97.94
22662;BME280;11497;52.222;21.246;2022-10-28T16:22:53;100988.34;;;15.74;97.82
22662;BME280;11497;52.222;21.246;2022-10-28T16:25:21;100991.09;;;15.71;97.79
22662;BME280;11497;52.222;21.246;2022-10-28T16:27:49;100986.69;;;15.71;97.60
22662;BME280;11497;52.222;21.246;2022-10-28T16:30:17;101000.34;;;15.60;98.01